createdAt,value
2018-05-06T00:00:41.619Z,97.40
2018-05-06T00:03:09.242Z,97.90
2018-05-06T00:05:36.858Z,98.20
2018-05-06T00:08:04.481Z,97.60
2018-05-06T00:10:32.865Z,97.20
2018-05-06T00:13:00.490Z,97.10
2018-05-06T00:15:28.107Z,97.30
2018-05-06T00:17:55.715Z,98.80
2018-05-06T00:20:23.334Z,98.80
2018-05-06T00:22:51.715Z,99.50
2018-05-06T00:25:19.342Z,99.50
2018-05-06T00:27:46.995Z,99.90
2018-05-06T00:30:15.618Z,99.90
2018-05-06T00:32:43.998Z,99.90
2018-05-06T00:35:11.615Z,99.90
2018-05-06T00:37:39.235Z,99.90
2018-05-06T00:40:06.859Z,99.90
2018-05-06T00:42:34.472Z,99.90
2018-05-06T00:45:02.088Z,99.90
2018-05-06T00:47:29.715Z,99.90
2018-05-06T00:49:57.339Z,99.90
2018-05-06T00:52:24.959Z,99.90
2018-05-06T00:54:52.575Z,99.90
2018-05-06T00:57:20.195Z,99.90
2018-05-06T00:59:47.807Z,99.90
2018-05-06T01:02:15.422Z,99.90
2018-05-06T01:04:43.055Z,99.90
2018-05-06T01:07:10.683Z,99.90
2018-05-06T01:09:38.293Z,99.90
2018-05-06T01:12:06.679Z,99.90
2018-05-06T01:14:34.294Z,99.90
2018-05-06T01:17:01.921Z,99.90
2018-05-06T01:19:29.567Z,99.90
2018-05-06T01:21:57.950Z,99.90
2018-05-06T01:24:25.608Z,99.90
2018-05-06T01:26:53.191Z,99.90
2018-05-06T01:29:20.803Z,99.90
2018-05-06T01:31:48.411Z,99.90
2018-05-06T01:34:16.103Z,99.90
2018-05-06T01:36:43.647Z,99.90
2018-05-06T01:39:12.777Z,99.90
2018-05-06T01:41:40.395Z,99.90
2018-05-06T01:44:08.042Z,99.90
2018-05-06T01:46:35.659Z,99.90
2018-05-06T01:49:03.280Z,99.90
2018-05-06T01:51:30.882Z,99.90
2018-05-06T01:53:58.503Z,99.90
2018-05-06T01:56:26.119Z,99.90
2018-05-06T01:58:53.739Z,99.90
2018-05-06T02:01:21.385Z,99.90
2018-05-06T02:03:48.999Z,99.90
2018-05-06T02:06:16.615Z,99.90
2018-05-06T02:08:44.228Z,99.90
2018-05-06T02:11:11.839Z,99.90
2018-05-06T02:13:39.448Z,99.90
2018-05-06T02:16:07.067Z,99.90
2018-05-06T02:18:35.447Z,99.90
2018-05-06T02:21:03.063Z,99.90
2018-05-06T02:23:30.678Z,99.90
2018-05-06T02:25:59.063Z,99.90
2018-05-06T02:28:26.677Z,99.90
2018-05-06T02:30:54.282Z,99.90
2018-05-06T02:33:22.664Z,99.90
2018-05-06T02:35:50.279Z,99.90
2018-05-06T02:38:18.112Z,99.90
2018-05-06T02:40:45.694Z,99.90
2018-05-06T02:43:13.299Z,99.90
2018-05-06T02:45:40.924Z,99.90
2018-05-06T02:48:08.531Z,99.90
2018-05-06T02:50:36.143Z,99.90
2018-05-06T02:53:03.759Z,99.90
2018-05-06T02:55:31.371Z,99.90
2018-05-06T02:57:58.986Z,99.90
2018-05-06T03:00:26.598Z,99.90
2018-05-06T03:02:54.995Z,99.90
2018-05-06T03:05:22.600Z,99.90
2018-05-06T03:07:50.214Z,99.90
2018-05-06T03:10:18.811Z,99.90
2018-05-06T03:12:46.419Z,99.90
2018-05-06T03:15:14.035Z,99.90
2018-05-06T03:17:41.653Z,99.90
2018-05-06T03:20:09.267Z,99.90
2018-05-06T03:22:36.883Z,99.90
2018-05-06T03:25:04.499Z,99.90
2018-05-06T03:27:32.882Z,99.90
2018-05-06T03:30:00.599Z,99.90
2018-05-06T03:32:28.175Z,99.90
2018-05-06T03:34:55.786Z,99.90
2018-05-06T03:37:23.404Z,99.90
2018-05-06T03:39:51.012Z,99.90
2018-05-06T03:42:18.622Z,99.90
2018-05-06T03:44:46.231Z,99.90
2018-05-06T03:47:13.847Z,99.90
2018-05-06T03:49:41.461Z,99.90
2018-05-06T03:52:09.072Z,99.90
2018-05-06T03:54:36.687Z,99.90
2018-05-06T03:57:16.103Z,99.90
2018-05-06T03:59:55.573Z,99.90
2018-05-06T04:05:18.239Z,99.90
2018-05-06T04:07:45.850Z,99.90
2018-05-06T04:10:13.462Z,99.90
2018-05-06T04:12:52.845Z,99.90
2018-05-06T04:15:20.443Z,99.90
2018-05-06T04:17:48.062Z,99.90
2018-05-06T04:20:15.675Z,99.90
2018-05-06T04:22:43.295Z,99.90
2018-05-06T04:25:11.182Z,99.90
2018-05-06T04:27:38.795Z,99.90
2018-05-06T04:30:07.179Z,99.90
2018-05-06T04:32:34.795Z,99.90
2018-05-06T04:35:02.408Z,99.90
2018-05-06T04:37:30.782Z,99.90
2018-05-06T04:39:58.401Z,99.90
2018-05-06T04:42:26.006Z,99.90
2018-05-06T04:44:53.623Z,99.90
2018-05-06T04:47:21.243Z,99.90
2018-05-06T04:49:48.854Z,99.90
2018-05-06T04:52:16.462Z,99.90
2018-05-06T04:54:44.072Z,99.90
2018-05-06T04:57:11.684Z,99.90
2018-05-06T04:59:39.294Z,99.90
2018-05-06T05:02:06.925Z,99.90
2018-05-06T05:04:34.534Z,99.90
2018-05-06T05:07:02.147Z,99.90
2018-05-06T05:09:29.831Z,99.90
2018-05-06T05:11:57.376Z,99.90
2018-05-06T05:14:24.996Z,99.90
2018-05-06T05:16:52.610Z,99.90
2018-05-06T05:19:20.214Z,99.90
2018-05-06T05:21:47.835Z,99.90
2018-05-06T05:24:15.442Z,99.90
2018-05-06T05:26:43.055Z,99.90
2018-05-06T05:29:10.662Z,99.90
2018-05-06T05:31:38.272Z,99.90
2018-05-06T05:34:05.885Z,99.90
2018-05-06T05:36:33.486Z,99.90
2018-05-06T05:39:01.098Z,99.90
2018-05-06T05:41:28.712Z,99.90
2018-05-06T05:43:56.339Z,99.90
2018-05-06T05:46:23.942Z,99.90
2018-05-06T05:48:51.551Z,99.90
2018-05-06T05:51:19.163Z,99.90
2018-05-06T05:53:47.551Z,99.90
2018-05-06T05:56:15.159Z,99.90
2018-05-06T05:58:42.770Z,99.90
2018-05-06T06:01:10.596Z,99.90
2018-05-06T06:03:38.218Z,99.90
2018-05-06T06:06:05.835Z,99.90
2018-05-06T06:08:33.448Z,99.90
2018-05-06T06:11:01.067Z,99.90
2018-05-06T06:13:28.679Z,99.90
2018-05-06T06:15:56.310Z,99.90
2018-05-06T06:18:23.914Z,99.90
2018-05-06T06:20:51.530Z,99.90
2018-05-06T06:23:19.150Z,99.90
2018-05-06T06:25:46.762Z,99.90
2018-05-06T06:28:14.385Z,99.90
2018-05-06T06:30:42.400Z,99.90
2018-05-06T06:33:10.011Z,99.90
2018-05-06T06:35:37.631Z,99.90
2018-05-06T06:38:05.252Z,99.40
2018-05-06T06:40:32.866Z,97.70
2018-05-06T06:43:00.490Z,97.10
2018-05-06T06:45:28.107Z,96.60
2018-05-06T06:47:55.738Z,97.30
2018-05-06T06:50:23.338Z,96.50
2018-05-06T06:52:50.972Z,93.70
2018-05-06T06:55:18.579Z,93.30
2018-05-06T06:57:46.191Z,94.50
2018-05-06T07:00:13.802Z,90.90
2018-05-06T07:02:41.419Z,88.80
2018-05-06T07:05:09.035Z,92.10
2018-05-06T07:07:36.659Z,86.80
2018-05-06T07:10:04.299Z,89.80
2018-05-06T07:12:31.922Z,90.00
2018-05-06T07:14:59.541Z,91.30
2018-05-06T07:17:27.168Z,91.20
2018-05-06T07:19:54.789Z,86.30
2018-05-06T07:22:22.406Z,87.20
2018-05-06T07:24:50.040Z,90.90
2018-05-06T07:27:17.656Z,88.10
2018-05-06T07:29:45.283Z,90.20
2018-05-06T07:32:12.900Z,92.80
2018-05-06T07:34:40.519Z,83.20
2018-05-06T07:37:08.142Z,79.90
2018-05-06T07:39:35.755Z,79.50
2018-05-06T07:42:03.376Z,80.50
2018-05-06T07:44:30.988Z,81.60
2018-05-06T07:46:59.372Z,89.00
2018-05-06T07:49:26.990Z,88.90
2018-05-06T07:51:54.611Z,89.30
2018-05-06T07:54:22.237Z,81.80
2018-05-06T07:56:49.848Z,80.10
2018-05-06T07:59:18.235Z,81.90
2018-05-06T08:01:45.842Z,81.90
2018-05-06T08:04:13.463Z,85.00
2018-05-06T08:06:42.091Z,81.90
2018-05-06T08:09:09.717Z,81.00
2018-05-06T08:11:37.461Z,70.70
2018-05-06T08:14:05.083Z,73.80
2018-05-06T08:16:32.811Z,75.00
2018-05-06T08:19:00.333Z,76.10
2018-05-06T08:21:27.948Z,71.80
2018-05-06T08:23:55.559Z,69.80
2018-05-06T08:26:23.179Z,70.00
2018-05-06T08:28:50.795Z,68.90
2018-05-06T08:31:25.826Z,68.20
2018-05-06T08:33:53.455Z,66.30
2018-05-06T08:36:21.346Z,70.10
2018-05-06T08:38:48.967Z,71.90
2018-05-06T08:41:16.591Z,61.50
2018-05-06T08:43:44.214Z,61.30
2018-05-06T08:46:11.848Z,58.60
2018-05-06T08:48:39.459Z,55.60
2018-05-06T08:51:07.080Z,53.70
2018-05-06T08:53:34.711Z,50.00
2018-05-06T08:56:02.335Z,47.40
2018-05-06T08:58:29.955Z,48.00
2018-05-06T09:00:57.629Z,49.60
2018-05-06T09:03:25.239Z,46.90
2018-05-06T09:05:53.631Z,42.70
2018-05-06T09:08:21.242Z,42.90
2018-05-06T09:11:03.743Z,42.70
2018-05-06T09:13:31.306Z,41.90
2018-05-06T09:15:58.924Z,39.10
2018-05-06T09:18:27.312Z,40.50
2018-05-06T09:20:54.925Z,40.40
2018-05-06T09:23:22.549Z,39.40
2018-05-06T09:25:54.583Z,36.50
2018-05-06T09:28:23.008Z,37.40
2018-05-06T09:30:50.634Z,36.80
2018-05-06T09:33:18.294Z,37.70
2018-05-06T09:35:45.920Z,36.70
2018-05-06T09:38:13.596Z,36.90
2018-05-06T09:40:41.261Z,34.10
2018-05-06T09:43:08.892Z,36.40
2018-05-06T09:45:36.551Z,37.90
2018-05-06T09:48:04.200Z,34.60
2018-05-06T09:50:31.867Z,35.00
2018-05-06T09:52:59.541Z,33.60
2018-05-06T09:55:27.203Z,33.80
2018-05-06T09:57:54.842Z,32.30
2018-05-06T10:00:22.488Z,32.10
2018-05-06T10:02:50.141Z,31.40
2018-05-06T10:05:30.163Z,32.40
2018-05-06T10:07:58.531Z,32.90
2018-05-06T10:10:26.143Z,32.80
2018-05-06T10:12:53.771Z,32.20
2018-05-06T10:15:21.392Z,32.10
2018-05-06T10:17:49.007Z,31.30
2018-05-06T10:20:16.632Z,30.50
2018-05-06T10:22:44.256Z,32.10
2018-05-06T10:25:11.874Z,31.30
2018-05-06T10:27:39.500Z,30.00
2018-05-06T10:30:07.126Z,29.60
2018-05-06T10:32:34.746Z,32.00
2018-05-06T10:35:02.363Z,30.60
2018-05-06T10:37:29.979Z,30.20
2018-05-06T10:39:57.605Z,31.30
2018-05-06T10:42:25.231Z,29.60
2018-05-06T10:44:52.858Z,32.70
2018-05-06T10:47:20.486Z,29.90
2018-05-06T10:49:48.111Z,30.20
2018-05-06T10:52:16.135Z,29.50
2018-05-06T10:54:43.768Z,29.60
2018-05-06T10:57:11.384Z,28.70
2018-05-06T10:59:39.771Z,28.90
2018-05-06T11:02:07.414Z,28.90
2018-05-06T11:04:35.027Z,30.20
2018-05-06T11:07:02.652Z,30.00
2018-05-06T11:09:30.295Z,31.10
2018-05-06T11:11:57.910Z,28.10
2018-05-06T11:14:25.531Z,27.80
2018-05-06T11:16:53.151Z,29.60
2018-05-06T11:19:20.762Z,31.20
2018-05-06T11:21:48.404Z,29.40
2018-05-06T11:24:16.023Z,29.60
2018-05-06T11:26:44.415Z,27.50
2018-05-06T11:29:12.035Z,27.40
2018-05-06T11:31:39.650Z,29.30
2018-05-06T11:34:07.275Z,27.60
2018-05-06T11:36:34.903Z,27.10
2018-05-06T11:39:02.511Z,28.30
2018-05-06T11:41:30.143Z,27.70
2018-05-06T11:43:57.773Z,27.50
2018-05-06T11:46:25.389Z,29.20
2018-05-06T11:48:53.006Z,26.70
2018-05-06T11:51:20.631Z,25.60
2018-05-06T11:53:48.248Z,26.50
2018-05-06T11:56:15.892Z,27.30
2018-05-06T11:58:43.519Z,26.40
2018-05-06T12:01:11.143Z,25.30
2018-05-06T12:03:38.771Z,26.50
2018-05-06T12:06:06.395Z,24.90
2018-05-06T12:08:34.019Z,25.00
2018-05-06T12:11:02.407Z,25.60
2018-05-06T12:13:30.032Z,25.50
2018-05-06T12:15:57.739Z,24.30
2018-05-06T12:18:25.536Z,24.00
2018-05-06T12:20:53.155Z,24.80
2018-05-06T12:23:20.782Z,25.70
2018-05-06T12:25:48.398Z,25.10
2018-05-06T12:28:16.023Z,25.40
2018-05-06T12:30:43.651Z,27.70
2018-05-06T12:33:11.262Z,26.20
2018-05-06T12:35:38.901Z,25.20
2018-05-06T12:38:06.523Z,26.10
2018-05-06T12:40:34.139Z,26.50
2018-05-06T12:43:01.752Z,26.40
2018-05-06T12:45:29.372Z,24.30
2018-05-06T12:47:56.982Z,24.40
2018-05-06T12:50:24.603Z,24.90
2018-05-06T12:52:52.393Z,26.10
2018-05-06T12:55:20.003Z,24.90
2018-05-06T12:57:47.634Z,25.60
2018-05-06T13:00:15.967Z,26.90
2018-05-06T13:02:43.592Z,25.60
2018-05-06T13:05:11.202Z,27.00
2018-05-06T13:07:38.831Z,26.70
2018-05-06T13:10:06.450Z,24.90
2018-05-06T13:12:34.090Z,25.80
2018-05-06T13:15:01.698Z,27.80
2018-05-06T13:17:29.399Z,25.10
2018-05-06T13:19:56.947Z,25.00
2018-05-06T13:22:24.570Z,24.80
2018-05-06T13:24:52.190Z,24.60
2018-05-06T13:27:19.808Z,25.10
2018-05-06T13:29:47.430Z,24.40
2018-05-06T13:32:15.828Z,24.70
2018-05-06T13:34:43.459Z,24.70
2018-05-06T13:37:11.074Z,26.00
2018-05-06T13:39:38.686Z,26.20
2018-05-06T13:42:06.302Z,25.90
2018-05-06T13:44:34.091Z,26.30
2018-05-06T13:47:01.715Z,25.90
2018-05-06T13:49:30.106Z,26.20
2018-05-06T13:51:57.743Z,26.10
2018-05-06T13:54:25.359Z,28.50
2018-05-06T13:56:52.975Z,28.40
2018-05-06T13:59:20.594Z,26.30
2018-05-06T14:01:48.210Z,29.10
2018-05-06T14:04:15.840Z,29.90
2018-05-06T14:06:43.463Z,30.80
2018-05-06T14:09:11.087Z,31.50
2018-05-06T14:11:38.704Z,30.40
2018-05-06T14:14:06.325Z,31.40
2018-05-06T14:16:33.956Z,32.70
2018-05-06T14:19:01.571Z,32.20
2018-05-06T14:21:29.186Z,33.30
2018-05-06T14:23:56.806Z,31.30
2018-05-06T14:26:24.424Z,32.30
2018-05-06T14:28:52.040Z,32.20
2018-05-06T14:31:19.656Z,32.60
2018-05-06T14:33:47.274Z,33.60
2018-05-06T14:36:14.934Z,33.40
2018-05-06T14:38:42.554Z,33.70
2018-05-06T14:41:10.162Z,32.50
2018-05-06T14:43:37.783Z,34.40
2018-05-06T14:46:05.407Z,35.10
2018-05-06T14:48:33.833Z,33.50
2018-05-06T14:51:01.425Z,33.40
2018-05-06T14:53:29.039Z,34.90
2018-05-06T14:55:56.696Z,34.70
2018-05-06T14:58:24.287Z,34.60
2018-05-06T15:00:52.324Z,35.00
2018-05-06T15:03:19.947Z,35.50
2018-05-06T15:05:47.568Z,37.60
2018-05-06T15:08:15.187Z,35.80
2018-05-06T15:10:42.914Z,38.40
2018-05-06T15:13:10.443Z,34.80
2018-05-06T15:15:38.142Z,35.10
2018-05-06T15:18:05.687Z,36.10
2018-05-06T15:20:33.312Z,37.50
2018-05-06T15:23:00.932Z,36.90
2018-05-06T15:25:28.565Z,37.90
2018-05-06T15:27:56.254Z,37.20
2018-05-06T15:30:23.798Z,36.10
2018-05-06T15:32:52.184Z,38.00
2018-05-06T15:35:19.810Z,38.10
2018-05-06T15:37:47.424Z,38.20
2018-05-06T15:40:15.296Z,37.10
2018-05-06T15:42:42.915Z,37.20
2018-05-06T15:45:10.531Z,38.10
2018-05-06T15:47:38.154Z,39.30
2018-05-06T15:50:05.842Z,37.90
2018-05-06T15:52:33.463Z,38.20
2018-05-06T15:55:01.083Z,39.40
2018-05-06T15:57:28.706Z,37.70
2018-05-06T15:59:56.323Z,38.50
2018-05-06T16:02:57.403Z,38.30
2018-05-06T16:05:25.015Z,39.40
2018-05-06T16:07:52.636Z,40.30
2018-05-06T16:10:20.254Z,40.80
2018-05-06T16:12:48.635Z,41.20
2018-05-06T16:15:16.262Z,41.20
2018-05-06T16:17:43.917Z,41.40
2018-05-06T16:20:11.498Z,41.20
2018-05-06T16:22:39.121Z,40.50
2018-05-06T16:25:06.751Z,40.60
2018-05-06T16:27:34.386Z,41.30
2018-05-06T16:30:02.016Z,40.60
2018-05-06T16:32:29.635Z,41.30
2018-05-06T16:34:57.254Z,40.90
2018-05-06T16:37:24.874Z,40.30
2018-05-06T16:39:52.492Z,41.50
2018-05-06T16:42:20.128Z,40.80
2018-05-06T16:44:47.742Z,40.90
2018-05-06T16:47:15.367Z,40.30
2018-05-06T16:49:42.976Z,40.80
2018-05-06T16:52:10.587Z,40.70
2018-05-06T16:54:38.975Z,40.80
2018-05-06T16:57:06.599Z,40.70
2018-05-06T16:59:34.211Z,41.40
2018-05-06T17:02:02.606Z,41.70
2018-05-06T17:04:30.226Z,41.70
2018-05-06T17:06:57.905Z,41.20
2018-05-06T17:09:25.499Z,43.30
2018-05-06T17:11:53.895Z,43.70
2018-05-06T17:14:21.510Z,43.60
2018-05-06T17:16:49.131Z,41.30
2018-05-06T17:19:22.059Z,42.00
2018-05-06T17:21:49.694Z,54.20
2018-05-06T17:24:17.318Z,48.10
2018-05-06T17:26:45.703Z,54.70
2018-05-06T17:29:13.452Z,54.50
2018-05-06T17:31:41.610Z,49.80
2018-05-06T17:34:09.226Z,49.90
2018-05-06T17:36:36.855Z,50.00
2018-05-06T17:39:05.383Z,46.50
2018-05-06T17:41:33.019Z,47.90
2018-05-06T17:44:00.634Z,46.80
2018-05-06T17:46:28.263Z,47.40
2018-05-06T17:48:55.884Z,47.10
2018-05-06T17:51:23.770Z,48.40
2018-05-06T17:53:51.387Z,48.80
2018-05-06T17:56:19.019Z,48.70
2018-05-06T17:58:46.679Z,48.70
2018-05-06T18:01:14.279Z,48.60
2018-05-06T18:03:41.906Z,48.90
2018-05-06T18:06:09.903Z,48.10
2018-05-06T18:11:42.278Z,50.00
2018-05-06T18:14:09.939Z,51.70
2018-05-06T18:16:37.585Z,52.00
2018-05-06T18:19:05.298Z,54.60
2018-05-06T18:21:33.713Z,60.40
2018-05-06T18:24:01.394Z,60.30
2018-05-06T18:26:29.045Z,51.90
2018-05-06T18:28:56.785Z,53.00
2018-05-06T18:31:25.194Z,61.60
2018-05-06T18:33:52.846Z,60.50
2018-05-06T18:36:20.495Z,60.50
2018-05-06T18:38:48.934Z,62.30
2018-05-06T18:41:16.569Z,62.20
2018-05-06T18:43:44.216Z,59.80
2018-05-06T18:46:11.850Z,61.20
2018-05-06T18:48:39.505Z,58.10
2018-05-06T18:51:12.683Z,65.90
2018-05-06T18:53:40.542Z,73.70
2018-05-06T18:56:09.095Z,77.50
2018-05-06T18:58:36.800Z,70.80
2018-05-06T19:01:04.455Z,73.90
2018-05-06T19:03:32.205Z,77.60
2018-05-06T19:06:00.609Z,76.90
2018-05-06T19:08:28.274Z,77.00
2018-05-06T19:10:55.914Z,72.40
2018-05-06T19:13:23.592Z,66.40
2018-05-06T19:15:51.263Z,69.00
2018-05-06T19:18:18.928Z,63.70
2018-05-06T19:20:46.576Z,69.90
2018-05-06T19:23:14.276Z,62.90
2018-05-06T19:25:42.689Z,60.80
2018-05-06T19:28:10.334Z,60.80
2018-05-06T19:30:38.037Z,60.60
2018-05-06T19:33:05.710Z,60.60
2018-05-06T19:35:33.487Z,70.80
2018-05-06T19:38:01.251Z,69.30
2018-05-06T19:40:28.898Z,68.70
2018-05-06T19:42:58.615Z,74.10
2018-05-06T19:45:26.283Z,79.30
2018-05-06T19:47:53.943Z,81.40
2018-05-06T19:50:21.576Z,80.90
2018-05-06T19:52:49.210Z,79.80
2018-05-06T19:55:16.831Z,86.70
2018-05-06T19:57:44.447Z,75.60
2018-05-06T20:00:14.515Z,75.50
2018-05-06T20:02:42.175Z,75.40
2018-05-06T20:05:09.786Z,80.50
2018-05-06T20:07:38.174Z,84.00
2018-05-06T20:10:19.083Z,80.60
2018-05-06T20:12:46.716Z,80.50
2018-05-06T20:15:14.382Z,83.80
2018-05-06T20:17:41.954Z,84.60
2018-05-06T20:20:09.577Z,87.70
2018-05-06T20:22:37.199Z,90.50
2018-05-06T20:25:04.824Z,85.40
2018-05-06T20:27:32.451Z,91.70
2018-05-06T20:30:00.076Z,92.20
2018-05-06T20:32:28.450Z,91.20
2018-05-06T20:34:56.083Z,91.00
2018-05-06T20:37:23.695Z,93.60
2018-05-06T20:39:51.323Z,93.50
2018-05-06T20:42:19.331Z,94.60
2018-05-06T20:44:47.724Z,94.70
2018-05-06T20:47:15.343Z,94.70
2018-05-06T20:49:42.965Z,95.70
2018-05-06T20:52:10.591Z,96.20
2018-05-06T20:54:38.211Z,95.30
2018-05-06T20:57:06.226Z,97.10
2018-05-06T20:59:33.844Z,97.90
2018-05-06T21:02:02.597Z,97.90
2018-05-06T21:04:30.431Z,97.60
2018-05-06T21:06:58.104Z,99.00
2018-05-06T21:09:25.799Z,98.60
2018-05-06T21:11:53.451Z,99.20
2018-05-06T21:14:21.104Z,98.20
2018-05-06T21:16:49.014Z,98.30
2018-05-06T21:19:16.724Z,98.00
2018-05-06T21:21:44.450Z,97.40
2018-05-06T21:24:12.159Z,97.70
2018-05-06T21:26:40.162Z,98.10
2018-05-06T21:29:08.703Z,99.40
2018-05-06T21:31:37.211Z,99.90
2018-05-06T21:34:05.057Z,99.90
2018-05-06T21:36:32.794Z,99.90
2018-05-06T21:39:00.451Z,99.90
2018-05-06T21:41:28.038Z,99.90
2018-05-06T21:43:55.664Z,99.90
2018-05-06T21:46:23.278Z,99.90
2018-05-06T21:48:50.899Z,99.90
2018-05-06T21:51:18.516Z,99.90
2018-05-06T21:53:46.139Z,99.90
2018-05-06T21:56:13.895Z,99.90
2018-05-06T21:58:41.504Z,99.90
2018-05-06T22:01:25.858Z,99.90
2018-05-06T22:03:53.859Z,99.90
2018-05-06T22:06:21.479Z,99.90
2018-05-06T22:08:49.090Z,99.90
2018-05-06T22:11:16.716Z,99.90
2018-05-06T22:13:44.340Z,99.90
2018-05-06T22:16:11.950Z,99.90
2018-05-06T22:18:39.582Z,99.90
2018-05-06T22:21:07.204Z,99.90
2018-05-06T22:23:34.820Z,99.90
2018-05-06T22:26:02.447Z,99.90
2018-05-06T22:28:30.069Z,99.90
2018-05-06T22:30:57.692Z,99.90
2018-05-06T22:33:25.303Z,99.90
2018-05-06T22:35:52.923Z,99.90
2018-05-06T22:38:20.546Z,99.90
2018-05-06T22:40:48.367Z,99.90
2018-05-06T22:43:16.379Z,99.90
2018-05-06T22:45:43.995Z,99.90
2018-05-06T22:48:11.616Z,99.90
2018-05-06T22:50:39.230Z,99.90
2018-05-06T22:53:06.859Z,99.90
2018-05-06T22:55:35.243Z,99.90
2018-05-06T22:58:02.867Z,99.90
2018-05-06T23:00:30.520Z,99.90
2018-05-06T23:02:58.115Z,99.90
2018-05-06T23:05:25.728Z,99.90
2018-05-06T23:07:53.352Z,99.90
2018-05-06T23:10:20.998Z,99.90
2018-05-06T23:12:48.622Z,99.90
2018-05-06T23:15:16.242Z,99.90
2018-05-06T23:17:43.863Z,99.90
2018-05-06T23:20:11.474Z,99.90
2018-05-06T23:22:45.651Z,99.90
2018-05-06T23:25:13.279Z,99.90
2018-05-06T23:27:41.667Z,99.90
2018-05-06T23:30:09.287Z,99.90
2018-05-06T23:32:36.911Z,99.90
2018-05-06T23:35:04.532Z,99.90
2018-05-06T23:37:32.146Z,99.90
2018-05-06T23:39:59.772Z,99.90
2018-05-06T23:42:27.386Z,99.90
2018-05-06T23:44:55.001Z,99.90
2018-05-06T23:47:22.610Z,99.90
2018-05-06T23:49:50.239Z,99.90
2018-05-06T23:52:18.246Z,99.90
2018-05-06T23:57:20.631Z,99.90
2018-05-06T23:59:48.247Z,99.90
